Tosca — 9V9459 — position and weather

sailwx.info

Track history (hours):
 
Tides and Currents Weather Stations Pressure Air Temp Water Temp Dewpoint Dewpoint Depression Visibility Wind Speed Wind Dir Waves Ship Positions

Tosca

Last reported at 2018-Jun-13 19:51 UTC. Time now 2018-Jun-20 04:06 UTC.
Position N 31°25' E 032°19'.

Length 200 m; draft 10.5 m.

Type: Ship. MMSI: 566087000.

Date/timePositionNaut miles runAvg speedWind from/ knotsBaromVisibWave heightAir tempDewpointWater temp
2018-Jun-13 19:51N 31°25' E 032°19'2 7.0
2018-Jun-13 19:30N 31°27' E 032°17'612.7
2018-Jun-13 19:00N 31°32' E 032°12'916.1
2018-Jun-13 18:28N 31°38' E 032°05'77416.1
2018-Jun-11 18:30N 34°51' E 017°09'816.5
2018-Jun-11 18:00N 34°53' E 016°59'816.5
2018-Jun-11 17:30N 34°55' E 016°49'816.5
2018-Jun-11 17:00N 34°57' E 016°39'816.3
2018-Jun-11 16:30N 34°59' E 016°30'816.2
2018-Jun-11 16:00N 35°01' E 016°20'816.3
2018-Jun-11 15:30N 35°03' E 016°10'816.4
2018-Jun-11 15:00N 35°05' E 016°01'816.4
2018-Jun-11 14:30N 35°06' E 015°51'3916.5
2018-Jun-11 12:08N 35°16' E 015°05'216.2
2018-Jun-11 12:00N 35°16' E 015°02'816.2
2018-Jun-11 11:31N 35°19' E 014°53'816.3
2018-Jun-11 11:00N 35°23' E 014°44'816.3
2018-Jun-11 10:30N 35°28' E 014°36'816.0
2018-Jun-11 10:00N 35°33' E 014°28'816.1
2018-Jun-11 09:30N 35°37' E 014°20'816.2
2018-Jun-11 09:00N 35°42' E 014°12'816.9
2018-Jun-11 08:30N 35°46' E 014°03'917.3
2018-Jun-11 08:00N 35°52' E 013°55'917.6
2018-Jun-11 07:30N 35°57' E 013°46'917.5
2018-Jun-11 07:00N 36°02' E 013°38'917.6
2018-Jun-11 06:30N 36°08' E 013°29'917.5
2018-Jun-11 06:00N 36°13' E 013°20'29417.5
2018-Jun-10 13:13N 38°28' E 007°51'16217.7
2018-Jun-10 04:05N 39°30' E 004°39'717.8
2018-Jun-10 03:41N 39°33' E 004°31'2818.0
2018-Jun-10 02:07N 39°44' E 003°57'618.4
2018-Jun-10 01:49N 39°47' E 003°51'1018.1
2018-Jun-10 01:16N 39°51' E 003°40'2317.8
2018-Jun-09 23:58N 40°09' E 003°20'818.0
2018-Jun-09 23:30N 40°16' E 003°14'918.1
2018-Jun-09 23:00N 40°23' E 003°06'917.4
2018-Jun-09 22:30N 40°30' E 002°59'917.6
2018-Jun-09 22:00N 40°37' E 002°51'917.7
2018-Jun-09 21:30N 40°44' E 002°44'917.7
2018-Jun-09 21:00N 40°50' E 002°37'1017.9
2018-Jun-09 20:26N 40°58' E 002°28'817.9
2018-Jun-09 20:00N 41°04' E 002°22'917.5
2018-Jun-09 19:30N 41°11' E 002°15'815.8
2018-Jun-09 19:00N 41°18' E 002°10'2 4.6
2018-Jun-09 18:30N 41°20' E 002°09'1 1.1
2018-Jun-09 17:58N 41°20' E 002°09'0 0.0
2018-Jun-09 17:28N 41°20' E 002°09'0 0.0
2018-Jun-09 16:58N 41°20' E 002°09'0 0.0
2018-Jun-09 16:28N 41°20' E 002°09'0 0.0
2018-Jun-09 15:58N 41°20' E 002°09'0 0.0
2018-Jun-09 15:28N 41°20' E 002°09'0 0.0
2018-Jun-09 14:28N 41°20' E 002°09'0 0.0
2018-Jun-09 13:58N 41°20' E 002°09'0 0.0
2018-Jun-09 13:28N 41°20' E 002°09'0 0.0
2018-Jun-09 12:58N 41°20' E 002°09'0 0.0
2018-Jun-09 12:28N 41°20' E 002°09'0 0.0
2018-Jun-09 11:58N 41°20' E 002°09'0 0.0
2018-Jun-09 11:28N 41°20' E 002°09'0 0.0
2018-Jun-09 10:58N 41°20' E 002°09'0 0.0
2018-Jun-09 10:28N 41°20' E 002°09'0 0.0
2018-Jun-09 09:58N 41°20' E 002°09'0 0.0
2018-Jun-09 09:28N 41°20' E 002°09'0 0.0
2018-Jun-09 08:58N 41°20' E 002°09'0 0.0
2018-Jun-09 08:28N 41°20' E 002°09'0 0.0
2018-Jun-09 07:58N 41°20' E 002°09'0 0.0
2018-Jun-09 07:28N 41°20' E 002°09'0 0.0
2018-Jun-09 06:58N 41°20' E 002°09'0 0.0
2018-Jun-09 06:28N 41°20' E 002°09'0 0.0
2018-Jun-09 05:58N 41°20' E 002°09'0 0.0
2018-Jun-09 05:28N 41°20' E 002°09'0 0.0
2018-Jun-09 04:58N 41°20' E 002°09'0 0.0
2018-Jun-09 04:28N 41°20' E 002°09'0 0.0
2018-Jun-09 03:58N 41°20' E 002°09'0 0.0
2018-Jun-09 03:28N 41°20' E 002°09'0 0.0
2018-Jun-09 02:58N 41°20' E 002°09'0 0.0
2018-Jun-09 02:28N 41°20' E 002°09'0 0.1
2018-Jun-09 02:00N 41°20' E 002°09'1 2.5
2018-Jun-09 01:31N 41°19' E 002°10'3 7.0
2018-Jun-09 01:01N 41°16' E 002°11'611.6
2018-Jun-09 00:30N 41°11' E 002°08'815.3
2018-Jun-09 00:01N 41°04' E 002°03'815.8
2018-Jun-08 23:30N 40°57' E 001°59'815.8
2018-Jun-08 23:00N 40°50' E 001°54'815.8
2018-Jun-08 22:30N 40°43' E 001°49'816.0
2018-Jun-08 22:00N 40°36' E 001°44'816.3
2018-Jun-08 21:30N 40°28' E 001°39'816.4
2018-Jun-08 21:00N 40°21' E 001°35'1116.3
2018-Jun-08 20:19N 40°11' E 001°27'516.3
2018-Jun-08 20:00N 40°07' E 001°24'816.4
2018-Jun-08 19:30N 39°59' E 001°19'816.4
2018-Jun-08 19:00N 39°52' E 001°15'816.4
2018-Jun-08 18:30N 39°45' E 001°10'816.7
2018-Jun-08 18:00N 39°38' E 001°05'1017.1
2018-Jun-08 17:26N 39°29' E 000°59'1517.1
2018-Jun-08 16:33N 39°15' E 000°50'117.2
2018-Jun-08 16:30N 39°15' E 000°49'917.3
2018-Jun-08 16:00N 39°07' E 000°44'917.3
2018-Jun-08 15:30N 38°59' E 000°39'917.1
2018-Jun-08 15:00N 38°51' E 000°34'817.2
2018-Jun-08 14:31N 38°44' E 000°29'817.0
2018-Jun-08 14:00N 38°37' E 000°23'816.6
2018-Jun-08 13:31N 38°30' E 000°17'816.6
2018-Jun-08 13:00N 38°23' E 000°12'815.9
2018-Jun-08 12:30N 38°16' E 000°06'713.9
2018-Jun-08 12:00N 38°11' E 000°01'713.6
2018-Jun-08 11:30N 38°05' W 000°04'713.6
2018-Jun-08 11:00N 37°59' W 000°09'713.7
2018-Jun-08 10:30N 37°54' W 000°13'713.7
2018-Jun-08 10:00N 37°48' W 000°18'713.6
2018-Jun-08 09:30N 37°42' W 000°23'713.6
2018-Jun-08 09:00N 37°37' W 000°28'612.0
2018-Jun-08 08:30N 37°32' W 000°33'510.1
2018-Jun-08 08:00N 37°29' W 000°37'510.2
2018-Jun-08 07:30N 37°25' W 000°42'510.1
2018-Jun-08 07:00N 37°22' W 000°47'510.6
2018-Jun-08 06:30N 37°18' W 000°52'714.5
2018-Jun-08 06:00N 37°13' W 000°59'816.3
2018-Jun-08 05:30N 37°08' W 001°06'816.2
2018-Jun-08 05:00N 37°03' W 001°14'815.9
2018-Jun-08 04:30N 36°57' W 001°21'815.7
2018-Jun-08 04:00N 36°52' W 001°28'18015.7
2018-Jun-07 16:33N 36°00' W 005°02'516.9
2018-Jun-07 16:17N 35°60' W 005°08'416.4
2018-Jun-07 16:00N 35°59' W 005°14'817.0
2018-Jun-07 15:30N 35°58' W 005°24'20715.4
2018-Jun-07 02:05N 36°48' W 009°33'215.5
2018-Jun-07 01:57N 36°50' W 009°34'4615.7
2018-Jun-06 23:01N 37°34' W 009°48'115.8
2018-Jun-06 22:57N 37°35' W 009°48'915.7
2018-Jun-06 22:24N 37°44' W 009°50'1115.7
2018-Jun-06 21:43N 37°55' W 009°52'515.4
2018-Jun-06 21:23N 37°60' W 009°54'615.6
2018-Jun-06 21:00N 38°05' W 009°56'815.7
2018-Jun-06 20:29N 38°13' W 009°58'715.6
2018-Jun-06 20:00N 38°20' W 009°60'815.8
2018-Jun-06 19:31N 38°28' W 010°02'916.5
2018-Jun-06 18:58N 38°37' W 010°05'816.3
2018-Jun-06 18:30N 38°44' W 010°06'816.0
2018-Jun-06 18:00N 38°52' W 010°06'815.9
2018-Jun-06 17:30N 39°00' W 010°06'816.0
2018-Jun-06 17:00N 39°08' W 010°06'816.0
2018-Jun-06 16:30N 39°16' W 010°06'59516.4
2018-Jun-05 04:11N 48°43' W 005°55'1017.8
2018-Jun-05 03:38N 48°52' W 005°49'318.0
2018-Jun-05 03:27N 48°54' W 005°46'918.2
2018-Jun-05 02:56N 48°59' W 005°34'818.2
2018-Jun-05 02:30N 49°02' W 005°23'7817.1
2018-Jun-04 21:57N 49°42' W 003°40'816.8
2018-Jun-04 21:30N 49°46' W 003°30'816.9
2018-Jun-04 21:00N 49°51' W 003°19'917.1
2018-Jun-04 20:30N 49°55' W 003°07'917.5
2018-Jun-04 20:00N 49°59' W 002°55'917.9
2018-Jun-04 19:30N 50°01' W 002°42'918.5
2018-Jun-04 19:00N 50°04' W 002°28'1019.0
2018-Jun-04 18:28N 50°08' W 002°14'919.6
2018-Jun-04 18:00N 50°12' W 002°01'1019.9
2018-Jun-04 17:31N 50°17' W 001°48'1019.8
2018-Jun-04 17:00N 50°22' W 001°34'1019.8
2018-Jun-04 16:30N 50°26' W 001°20'1019.8
2018-Jun-04 16:00N 50°31' W 001°07'816.8
2018-Jun-04 15:30N 50°38' W 000°58'510.5
2018-Jun-04 15:00N 50°43' W 001°00'714.0
2018-Jun-04 14:30N 50°46' W 001°10'510.8
2018-Jun-04 14:00N 50°48' W 001°18'4 8.1
2018-Jun-04 13:30N 50°51' W 001°21'3 5.2
2018-Jun-04 13:00N 50°53' W 001°24'0 0.3
2018-Jun-04 12:30N 50°53' W 001°24'0 0.0
2018-Jun-04 12:00N 50°53' W 001°24'0 0.0
2018-Jun-04 11:30N 50°53' W 001°24'0 0.0
2018-Jun-04 11:00N 50°53' W 001°24'0 0.0
2018-Jun-04 10:30N 50°53' W 001°24'0 0.0
2018-Jun-04 10:00N 50°53' W 001°24'0 0.0
2018-Jun-04 09:30N 50°53' W 001°24'0 0.0
2018-Jun-04 09:00N 50°53' W 001°24'0 0.0
2018-Jun-04 08:30N 50°53' W 001°24'0 0.0
2018-Jun-04 08:00N 50°53' W 001°24'0 0.0
2018-Jun-04 07:30N 50°53' W 001°24'0 0.0
2018-Jun-04 07:00N 50°53' W 001°24'0 0.0
2018-Jun-04 06:30N 50°53' W 001°24'0 0.0
2018-Jun-04 06:00N 50°53' W 001°24'0 0.0
2018-Jun-04 05:30N 50°53' W 001°24'0 0.0
2018-Jun-04 05:00N 50°53' W 001°24'0 0.0
2018-Jun-04 04:30N 50°53' W 001°24'0 0.0
2018-Jun-04 04:00N 50°53' W 001°24'0 0.0
2018-Jun-04 03:30N 50°53' W 001°24'0 0.0
2018-Jun-04 03:00N 50°53' W 001°24'0 0.0
2018-Jun-04 02:30N 50°53' W 001°24'0 0.0
2018-Jun-04 02:00N 50°53' W 001°24'0 0.0
2018-Jun-04 01:30N 50°53' W 001°24'0 0.0
2018-Jun-04 01:00N 50°53' W 001°24'0 0.0
2018-Jun-04 00:30N 50°53' W 001°24'0 0.0
2018-Jun-04 00:00N 50°53' W 001°24'0 0.0
2018-Jun-03 23:30N 50°53' W 001°24'0 0.0
2018-Jun-03 23:00N 50°53' W 001°24'0 0.0
2018-Jun-03 22:30N 50°53' W 001°24'0 0.0
2018-Jun-03 22:00N 50°53' W 001°24'0 0.0
2018-Jun-03 21:30N 50°53' W 001°24'0 0.0
2018-Jun-03 21:00N 50°53' W 001°24'0 0.0
2018-Jun-03 20:30N 50°53' W 001°24'0 0.0
2018-Jun-03 20:00N 50°53' W 001°24'  
Track history (hours):
 
Tides and Currents Weather Stations Pressure Air Temp Water Temp Dewpoint Dewpoint Depression Visibility Wind Speed Wind Dir Waves Ship Positions

Tosca

Last reported at 2018-Jun-13 19:51 UTC. Time now 2018-Jun-20 04:06 UTC.
Position N 31°25' E 032°19'.

Length 200 m; draft 10.5 m.

Type: Ship. MMSI: 566087000.

Date/timePositionNaut miles runAvg speedWind from/ knotsBaromVisibWave heightAir tempDewpointWater temp
2018-Jun-13 19:51N 31°25' E 032°19'2 7.0
2018-Jun-13 19:30N 31°27' E 032°17'612.7
2018-Jun-13 19:00N 31°32' E 032°12'916.1
2018-Jun-13 18:28N 31°38' E 032°05'77416.1
2018-Jun-11 18:30N 34°51' E 017°09'816.5
2018-Jun-11 18:00N 34°53' E 016°59'816.5
2018-Jun-11 17:30N 34°55' E 016°49'816.5
2018-Jun-11 17:00N 34°57' E 016°39'816.3
2018-Jun-11 16:30N 34°59' E 016°30'816.2
2018-Jun-11 16:00N 35°01' E 016°20'816.3
2018-Jun-11 15:30N 35°03' E 016°10'816.4
2018-Jun-11 15:00N 35°05' E 016°01'816.4
2018-Jun-11 14:30N 35°06' E 015°51'3916.5
2018-Jun-11 12:08N 35°16' E 015°05'216.2
2018-Jun-11 12:00N 35°16' E 015°02'816.2
2018-Jun-11 11:31N 35°19' E 014°53'816.3
2018-Jun-11 11:00N 35°23' E 014°44'816.3
2018-Jun-11 10:30N 35°28' E 014°36'816.0
2018-Jun-11 10:00N 35°33' E 014°28'816.1
2018-Jun-11 09:30N 35°37' E 014°20'816.2
2018-Jun-11 09:00N 35°42' E 014°12'816.9
2018-Jun-11 08:30N 35°46' E 014°03'917.3
2018-Jun-11 08:00N 35°52' E 013°55'917.6
2018-Jun-11 07:30N 35°57' E 013°46'917.5
2018-Jun-11 07:00N 36°02' E 013°38'917.6
2018-Jun-11 06:30N 36°08' E 013°29'917.5
2018-Jun-11 06:00N 36°13' E 013°20'29417.5
2018-Jun-10 13:13N 38°28' E 007°51'16217.7
2018-Jun-10 04:05N 39°30' E 004°39'717.8
2018-Jun-10 03:41N 39°33' E 004°31'2818.0
2018-Jun-10 02:07N 39°44' E 003°57'618.4
2018-Jun-10 01:49N 39°47' E 003°51'1018.1
2018-Jun-10 01:16N 39°51' E 003°40'2317.8
2018-Jun-09 23:58N 40°09' E 003°20'818.0
2018-Jun-09 23:30N 40°16' E 003°14'918.1
2018-Jun-09 23:00N 40°23' E 003°06'917.4
2018-Jun-09 22:30N 40°30' E 002°59'917.6
2018-Jun-09 22:00N 40°37' E 002°51'917.7
2018-Jun-09 21:30N 40°44' E 002°44'917.7
2018-Jun-09 21:00N 40°50' E 002°37'1017.9
2018-Jun-09 20:26N 40°58' E 002°28'817.9
2018-Jun-09 20:00N 41°04' E 002°22'917.5
2018-Jun-09 19:30N 41°11' E 002°15'815.8
2018-Jun-09 19:00N 41°18' E 002°10'2 4.6
2018-Jun-09 18:30N 41°20' E 002°09'1 1.1
2018-Jun-09 17:58N 41°20' E 002°09'0 0.0
2018-Jun-09 17:28N 41°20' E 002°09'0 0.0
2018-Jun-09 16:58N 41°20' E 002°09'0 0.0
2018-Jun-09 16:28N 41°20' E 002°09'0 0.0
2018-Jun-09 15:58N 41°20' E 002°09'0 0.0
2018-Jun-09 15:28N 41°20' E 002°09'0 0.0
2018-Jun-09 14:28N 41°20' E 002°09'0 0.0
2018-Jun-09 13:58N 41°20' E 002°09'0 0.0
2018-Jun-09 13:28N 41°20' E 002°09'0 0.0
2018-Jun-09 12:58N 41°20' E 002°09'0 0.0
2018-Jun-09 12:28N 41°20' E 002°09'0 0.0
2018-Jun-09 11:58N 41°20' E 002°09'0 0.0
2018-Jun-09 11:28N 41°20' E 002°09'0 0.0
2018-Jun-09 10:58N 41°20' E 002°09'0 0.0
2018-Jun-09 10:28N 41°20' E 002°09'0 0.0
2018-Jun-09 09:58N 41°20' E 002°09'0 0.0
2018-Jun-09 09:28N 41°20' E 002°09'0 0.0
2018-Jun-09 08:58N 41°20' E 002°09'0 0.0
2018-Jun-09 08:28N 41°20' E 002°09'0 0.0
2018-Jun-09 07:58N 41°20' E 002°09'0 0.0
2018-Jun-09 07:28N 41°20' E 002°09'0 0.0
2018-Jun-09 06:58N 41°20' E 002°09'0 0.0
2018-Jun-09 06:28N 41°20' E 002°09'0 0.0
2018-Jun-09 05:58N 41°20' E 002°09'0 0.0
2018-Jun-09 05:28N 41°20' E 002°09'0 0.0
2018-Jun-09 04:58N 41°20' E 002°09'0 0.0
2018-Jun-09 04:28N 41°20' E 002°09'0 0.0
2018-Jun-09 03:58N 41°20' E 002°09'0 0.0
2018-Jun-09 03:28N 41°20' E 002°09'0 0.0
2018-Jun-09 02:58N 41°20' E 002°09'0 0.0
2018-Jun-09 02:28N 41°20' E 002°09'0 0.1
2018-Jun-09 02:00N 41°20' E 002°09'1 2.5
2018-Jun-09 01:31N 41°19' E 002°10'3 7.0
2018-Jun-09 01:01N 41°16' E 002°11'611.6
2018-Jun-09 00:30N 41°11' E 002°08'815.3
2018-Jun-09 00:01N 41°04' E 002°03'815.8
2018-Jun-08 23:30N 40°57' E 001°59'815.8
2018-Jun-08 23:00N 40°50' E 001°54'815.8
2018-Jun-08 22:30N 40°43' E 001°49'816.0
2018-Jun-08 22:00N 40°36' E 001°44'816.3
2018-Jun-08 21:30N 40°28' E 001°39'816.4
2018-Jun-08 21:00N 40°21' E 001°35'1116.3
2018-Jun-08 20:19N 40°11' E 001°27'516.3
2018-Jun-08 20:00N 40°07' E 001°24'816.4
2018-Jun-08 19:30N 39°59' E 001°19'816.4
2018-Jun-08 19:00N 39°52' E 001°15'816.4
2018-Jun-08 18:30N 39°45' E 001°10'816.7
2018-Jun-08 18:00N 39°38' E 001°05'1017.1
2018-Jun-08 17:26N 39°29' E 000°59'1517.1
2018-Jun-08 16:33N 39°15' E 000°50'117.2
2018-Jun-08 16:30N 39°15' E 000°49'917.3
2018-Jun-08 16:00N 39°07' E 000°44'917.3
2018-Jun-08 15:30N 38°59' E 000°39'917.1
2018-Jun-08 15:00N 38°51' E 000°34'817.2
2018-Jun-08 14:31N 38°44' E 000°29'817.0
2018-Jun-08 14:00N 38°37' E 000°23'816.6
2018-Jun-08 13:31N 38°30' E 000°17'816.6
2018-Jun-08 13:00N 38°23' E 000°12'815.9
2018-Jun-08 12:30N 38°16' E 000°06'713.9
2018-Jun-08 12:00N 38°11' E 000°01'713.6
2018-Jun-08 11:30N 38°05' W 000°04'713.6
2018-Jun-08 11:00N 37°59' W 000°09'713.7
2018-Jun-08 10:30N 37°54' W 000°13'713.7
2018-Jun-08 10:00N 37°48' W 000°18'713.6
2018-Jun-08 09:30N 37°42' W 000°23'713.6
2018-Jun-08 09:00N 37°37' W 000°28'612.0
2018-Jun-08 08:30N 37°32' W 000°33'510.1
2018-Jun-08 08:00N 37°29' W 000°37'510.2
2018-Jun-08 07:30N 37°25' W 000°42'510.1
2018-Jun-08 07:00N 37°22' W 000°47'510.6
2018-Jun-08 06:30N 37°18' W 000°52'714.5
2018-Jun-08 06:00N 37°13' W 000°59'816.3
2018-Jun-08 05:30N 37°08' W 001°06'816.2
2018-Jun-08 05:00N 37°03' W 001°14'815.9
2018-Jun-08 04:30N 36°57' W 001°21'815.7
2018-Jun-08 04:00N 36°52' W 001°28'18015.7
2018-Jun-07 16:33N 36°00' W 005°02'516.9
2018-Jun-07 16:17N 35°60' W 005°08'416.4
2018-Jun-07 16:00N 35°59' W 005°14'817.0
2018-Jun-07 15:30N 35°58' W 005°24'20715.4
2018-Jun-07 02:05N 36°48' W 009°33'215.5
2018-Jun-07 01:57N 36°50' W 009°34'4615.7
2018-Jun-06 23:01N 37°34' W 009°48'115.8
2018-Jun-06 22:57N 37°35' W 009°48'915.7
2018-Jun-06 22:24N 37°44' W 009°50'1115.7
2018-Jun-06 21:43N 37°55' W 009°52'515.4
2018-Jun-06 21:23N 37°60' W 009°54'615.6
2018-Jun-06 21:00N 38°05' W 009°56'815.7
2018-Jun-06 20:29N 38°13' W 009°58'715.6
2018-Jun-06 20:00N 38°20' W 009°60'815.8
2018-Jun-06 19:31N 38°28' W 010°02'916.5
2018-Jun-06 18:58N 38°37' W 010°05'816.3
2018-Jun-06 18:30N 38°44' W 010°06'816.0
2018-Jun-06 18:00N 38°52' W 010°06'815.9
2018-Jun-06 17:30N 39°00' W 010°06'816.0
2018-Jun-06 17:00N 39°08' W 010°06'816.0
2018-Jun-06 16:30N 39°16' W 010°06'59516.4
2018-Jun-05 04:11N 48°43' W 005°55'1017.8
2018-Jun-05 03:38N 48°52' W 005°49'318.0
2018-Jun-05 03:27N 48°54' W 005°46'918.2
2018-Jun-05 02:56N 48°59' W 005°34'818.2
2018-Jun-05 02:30N 49°02' W 005°23'7817.1
2018-Jun-04 21:57N 49°42' W 003°40'816.8
2018-Jun-04 21:30N 49°46' W 003°30'816.9
2018-Jun-04 21:00N 49°51' W 003°19'917.1
2018-Jun-04 20:30N 49°55' W 003°07'917.5
2018-Jun-04 20:00N 49°59' W 002°55'917.9
2018-Jun-04 19:30N 50°01' W 002°42'918.5
2018-Jun-04 19:00N 50°04' W 002°28'1019.0
2018-Jun-04 18:28N 50°08' W 002°14'919.6
2018-Jun-04 18:00N 50°12' W 002°01'1019.9
2018-Jun-04 17:31N 50°17' W 001°48'1019.8
2018-Jun-04 17:00N 50°22' W 001°34'1019.8
2018-Jun-04 16:30N 50°26' W 001°20'1019.8
2018-Jun-04 16:00N 50°31' W 001°07'816.8
2018-Jun-04 15:30N 50°38' W 000°58'510.5
2018-Jun-04 15:00N 50°43' W 001°00'714.0
2018-Jun-04 14:30N 50°46' W 001°10'510.8
2018-Jun-04 14:00N 50°48' W 001°18'4 8.1
2018-Jun-04 13:30N 50°51' W 001°21'3 5.2
2018-Jun-04 13:00N 50°53' W 001°24'0 0.3
2018-Jun-04 12:30N 50°53' W 001°24'0 0.0
2018-Jun-04 12:00N 50°53' W 001°24'0 0.0
2018-Jun-04 11:30N 50°53' W 001°24'0 0.0
2018-Jun-04 11:00N 50°53' W 001°24'0 0.0
2018-Jun-04 10:30N 50°53' W 001°24'0 0.0
2018-Jun-04 10:00N 50°53' W 001°24'0 0.0
2018-Jun-04 09:30N 50°53' W 001°24'0 0.0
2018-Jun-04 09:00N 50°53' W 001°24'0 0.0
2018-Jun-04 08:30N 50°53' W 001°24'0 0.0
2018-Jun-04 08:00N 50°53' W 001°24'0 0.0
2018-Jun-04 07:30N 50°53' W 001°24'0 0.0
2018-Jun-04 07:00N 50°53' W 001°24'0 0.0
2018-Jun-04 06:30N 50°53' W 001°24'0 0.0
2018-Jun-04 06:00N 50°53' W 001°24'0 0.0
2018-Jun-04 05:30N 50°53' W 001°24'0 0.0
2018-Jun-04 05:00N 50°53' W 001°24'0 0.0
2018-Jun-04 04:30N 50°53' W 001°24'0 0.0
2018-Jun-04 04:00N 50°53' W 001°24'0 0.0
2018-Jun-04 03:30N 50°53' W 001°24'0 0.0
2018-Jun-04 03:00N 50°53' W 001°24'0 0.0
2018-Jun-04 02:30N 50°53' W 001°24'0 0.0
2018-Jun-04 02:00N 50°53' W 001°24'0 0.0
2018-Jun-04 01:30N 50°53' W 001°24'0 0.0
2018-Jun-04 01:00N 50°53' W 001°24'0 0.0
2018-Jun-04 00:30N 50°53' W 001°24'0 0.0
2018-Jun-04 00:00N 50°53' W 001°24'0 0.0
2018-Jun-03 23:30N 50°53' W 001°24'0 0.0
2018-Jun-03 23:00N 50°53' W 001°24'0 0.0
2018-Jun-03 22:30N 50°53' W 001°24'0 0.0
2018-Jun-03 22:00N 50°53' W 001°24'0 0.0
2018-Jun-03 21:30N 50°53' W 001°24'0 0.0
2018-Jun-03 21:00N 50°53' W 001°24'0 0.0
2018-Jun-03 20:30N 50°53' W 001°24'0 0.0
2018-Jun-03 20:00N 50°53' W 001°24'  

Dump ship's entire track history